Time;durP1;ratioP1;P1;durP2;ratioP2;P2;SDS_P1;SDS_P2;PMS_P1;PMS_P2;Temp;Humidity;BMP_temperature;BMP_pressure;BME280_temperature;BME280_humidity;BME280_pressure;Samples;Min_cycle;Max_cycle;Signal;HPM_P1;HPM_P2
2022/11/30 00:00:09;;;;;;;41.23;24.43;;;3.30;99.90;;;;;;5072449;28;20190;-66
2022/11/30 00:02:40;;;;;;;47.83;28.47;;;3.30;99.90;;;;;;5072149;28;20222;-66
2022/11/30 00:05:09;;;;;;;44.03;25.20;;;3.30;99.90;;;;;;5072465;28;20584;-65
2022/11/30 00:07:37;;;;;;;42.13;25.13;;;3.20;99.90;;;;;;5090322;28;20257;-68
2022/11/30 00:10:08;;;;;;;43.73;26.50;;;3.30;99.90;;;;;;5092260;28;20197;-65
2022/11/30 00:12:40;;;;;;;43.30;26.27;;;3.30;99.90;;;;;;5092324;28;20252;-67
2022/11/30 00:15:11;;;;;;;40.97;25.20;;;3.40;99.90;;;;;;5092487;28;20213;-65
2022/11/30 00:17:39;;;;;;;41.80;24.70;;;3.30;99.90;;;;;;5092011;28;20573;-65
2022/11/30 00:20:09;;;;;;;44.13;26.37;;;3.30;99.90;;;;;;5091822;28;20563;-65
2022/11/30 00:22:37;;;;;;;43.30;26.60;;;3.30;99.90;;;;;;5091874;28;20205;-69
2022/11/30 00:25:07;;;;;;;43.30;25.43;;;3.40;99.90;;;;;;5091581;28;20194;-65
2022/11/30 00:27:36;;;;;;;43.33;25.90;;;3.50;99.90;;;;;;5091614;28;20966;-67
2022/11/30 00:30:05;;;;;;;41.57;26.07;;;3.50;99.90;;;;;;5091760;28;20563;-71
2022/11/30 00:32:33;;;;;;;43.73;24.80;;;3.30;99.90;;;;;;5091538;28;20587;-68
2022/11/30 00:35:02;;;;;;;45.07;26.77;;;3.20;99.90;;;;;;5092293;28;20205;-67
2022/11/30 00:37:31;;;;;;;40.87;26.17;;;3.30;99.90;;;;;;5091441;28;20565;-66
2022/11/30 00:39:59;;;;;;;41.97;26.20;;;3.40;99.90;;;;;;5091308;28;20201;-65
2022/11/30 00:42:29;;;;;;;41.90;25.50;;;3.50;99.90;;;;;;5091444;28;20243;-66
2022/11/30 00:44:57;;;;;;;41.93;25.30;;;3.60;99.90;;;;;;5091714;28;20201;-65
2022/11/30 00:47:26;;;;;;;38.37;25.40;;;3.40;99.90;;;;;;5091506;28;20198;-64
2022/11/30 00:49:54;;;;;;;43.13;25.87;;;3.30;99.90;;;;;;5092314;28;20208;-66
2022/11/30 00:52:22;;;;;;;42.30;24.43;;;3.30;99.90;;;;;;5092236;28;20211;-65
2022/11/30 00:54:51;;;;;;;42.43;25.87;;;3.10;99.90;;;;;;5092393;28;20202;-65
2022/11/30 00:57:19;;;;;;;39.27;24.50;;;3.20;99.90;;;;;;5092234;28;20210;-65
2022/11/30 00:59:48;;;;;;;45.20;25.53;;;3.20;99.90;;;;;;5092215;28;20195;-66
2022/11/30 01:02:17;;;;;;;43.03;24.40;;;3.10;99.90;;;;;;5092193;28;20205;-68
2022/11/30 01:04:45;;;;;;;44.47;25.70;;;3.00;99.90;;;;;;5092208;28;20200;-69
2022/11/30 01:07:14;;;;;;;43.70;26.53;;;3.00;99.90;;;;;;5091908;28;20229;-72
2022/11/30 01:09:42;;;;;;;39.67;24.07;;;3.10;99.90;;;;;;5092091;28;20677;-67
2022/11/30 01:12:10;;;;;;;49.30;26.40;;;3.20;99.90;;;;;;5092187;28;20198;-67
2022/11/30 01:14:39;;;;;;;40.93;25.67;;;3.20;99.90;;;;;;5091952;28;20280;-66
2022/11/30 01:17:08;;;;;;;43.17;25.10;;;3.20;99.90;;;;;;5091890;28;20248;-66
2022/11/30 01:19:37;;;;;;;40.47;25.10;;;3.30;99.90;;;;;;5091903;28;20229;-65
2022/11/30 01:22:05;;;;;;;42.80;24.73;;;3.40;99.90;;;;;;5091883;28;20204;-70
2022/11/30 01:24:33;;;;;;;44.93;26.03;;;3.40;99.90;;;;;;5092057;28;20198;-65
2022/11/30 01:27:01;;;;;;;37.17;23.77;;;3.40;99.90;;;;;;5091828;28;20209;-65
2022/11/30 01:29:30;;;;;;;40.53;24.83;;;3.40;99.90;;;;;;5091636;28;20265;-66
2022/11/30 01:31:58;;;;;;;42.37;24.17;;;3.40;99.90;;;;;;5091204;28;20567;-65
2022/11/30 01:34:28;;;;;;;39.80;25.07;;;3.50;99.90;;;;;;5091723;28;20193;-71
2022/11/30 01:36:56;;;;;;;39.03;23.80;;;3.50;99.90;;;;;;5091848;28;20197;-65
2022/11/30 01:39:25;;;;;;;38.13;23.67;;;3.40;99.90;;;;;;5091698;28;20232;-66
2022/11/30 01:41:54;;;;;;;40.00;24.53;;;3.30;99.90;;;;;;5091877;28;20208;-65
2022/11/30 01:44:50;;;;;;;39.50;25.23;;;3.20;99.90;;;;;;5091430;28;20626;-65
2022/11/30 01:47:21;;;;;;;40.90;25.80;;;3.20;99.90;;;;;;5091404;28;20208;-66
2022/11/30 01:49:57;;;;;;;37.60;24.07;;;3.20;99.90;;;;;;5091733;28;20240;-66
2022/11/30 01:52:29;;;;;;;41.20;24.90;;;3.20;99.90;;;;;;5091568;28;20199;-65
2022/11/30 01:55:03;;;;;;;41.90;25.23;;;3.30;99.90;;;;;;5091506;28;20198;-67
2022/11/30 01:57:36;;;;;;;36.70;23.13;;;3.30;99.90;;;;;;5091335;28;20667;-65
2022/11/30 02:00:10;;;;;;;42.47;25.00;;;3.30;99.90;;;;;;5091545;28;20708;-68
2022/11/30 02:02:48;;;;;;;39.40;24.67;;;3.30;99.90;;;;;;5091850;28;20224;-69
2022/11/30 02:05:19;;;;;;;42.13;23.87;;;3.20;99.90;;;;;;5091443;28;20736;-71
2022/11/30 02:07:48;;;;;;;37.67;24.13;;;3.30;99.90;;;;;;5091510;28;20303;-70
2022/11/30 02:10:22;;;;;;;38.87;23.70;;;3.10;99.90;;;;;;5091263;28;20209;-71
2022/11/30 02:13:18;;;;;;;40.97;24.53;;;3.20;99.90;;;;;;5091466;28;20573;-66
2022/11/30 02:15:59;;;;;;;40.60;24.97;;;3.30;99.90;;;;;;5091841;28;20781;-66
2022/11/30 02:18:35;;;;;;;35.80;21.30;;;3.40;99.90;;;;;;5091228;28;20636;-66
2022/11/30 02:21:14;;;;;;;40.77;25.27;;;3.40;99.90;;;;;;5091274;28;20197;-65
2022/11/30 02:24:01;;;;;;;42.10;24.30;;;3.40;99.90;;;;;;5091366;28;20205;-69
2022/11/30 02:26:42;;;;;;;42.00;23.37;;;3.30;99.90;;;;;;5091158;28;20695;-71
2022/11/30 02:29:18;;;;;;;38.60;24.10;;;3.20;99.90;;;;;;5090979;28;20221;-66
2022/11/30 02:31:51;;;;;;;39.13;24.03;;;3.20;99.90;;;;;;5091121;28;20672;-66
2022/11/30 02:34:22;;;;;;;41.40;26.97;;;3.40;99.90;;;;;;5091057;28;20200;-66
2022/11/30 02:36:52;;;;;;;36.47;23.40;;;3.40;99.90;;;;;;5091100;28;20204;-67
2022/11/30 02:39:21;;;;;;;41.00;25.00;;;3.20;99.90;;;;;;5090977;28;20218;-71
2022/11/30 02:41:49;;;;;;;42.93;24.83;;;3.30;99.90;;;;;;5091124;28;20205;-70
2022/11/30 02:44:21;;;;;;;39.50;24.67;;;3.40;99.90;;;;;;5092823;28;20191;-69
2022/11/30 02:47:27;;;;;;;36.87;23.17;;;3.30;99.90;;;;;;5094859;28;20229;-70
2022/11/30 02:50:00;;;;;;;41.00;24.40;;;3.30;99.90;;;;;;5032224;28;20208;-68
2022/11/30 02:52:31;;;;;;;43.93;25.80;;;3.30;99.90;;;;;;5032232;28;20605;-66
2022/11/30 02:55:01;;;;;;;43.10;25.13;;;3.40;99.90;;;;;;5032227;28;20208;-67
2022/11/30 02:57:29;;;;;;;46.33;26.67;;;3.40;99.90;;;;;;5031989;28;20733;-65
2022/11/30 03:00:00;;;;;;;40.70;23.73;;;3.40;99.90;;;;;;5031955;28;20275;-70
2022/11/30 03:02:29;;;;;;;37.53;23.30;;;3.50;99.90;;;;;;5032020;28;20210;-65
2022/11/30 03:04:57;;;;;;;39.80;24.00;;;3.50;99.90;;;;;;5031934;28;20197;-71
2022/11/30 03:07:26;;;;;;;38.90;23.90;;;3.50;99.90;;;;;;5031606;28;20273;-67
2022/11/30 03:09:54;;;;;;;37.10;23.03;;;3.50;99.90;;;;;;5015390;28;20235;-69
2022/11/30 03:12:22;;;;;;;45.80;25.23;;;3.40;99.90;;;;;;5031714;28;20627;-70
2022/11/30 03:14:51;;;;;;;39.50;22.97;;;3.50;99.90;;;;;;5031816;28;20210;-70
2022/11/30 03:17:20;;;;;;;38.77;22.57;;;3.50;99.90;;;;;;5031618;28;20203;-65
2022/11/30 03:19:48;;;;;;;36.83;24.10;;;3.40;99.90;;;;;;5031586;28;20787;-73
2022/11/30 03:22:17;;;;;;;39.80;22.73;;;3.40;99.90;;;;;;5031653;28;20200;-71
2022/11/30 03:24:45;;;;;;;36.67;22.17;;;3.30;99.90;;;;;;5031672;28;20209;-65
2022/11/30 03:27:14;;;;;;;40.17;23.83;;;3.30;99.90;;;;;;5085360;28;20207;-69
2022/11/30 03:29:42;;;;;;;39.70;23.43;;;3.40;99.90;;;;;;5093816;28;20205;-66
2022/11/30 03:32:10;;;;;;;40.87;24.60;;;3.40;99.90;;;;;;5093784;28;20189;-66
2022/11/30 03:34:40;;;;;;;32.77;22.53;;;3.30;99.90;;;;;;5093770;28;20549;-66
2022/11/30 03:37:08;;;;;;;38.33;22.33;;;3.20;99.90;;;;;;5093783;28;20196;-66
2022/11/30 03:39:37;;;;;;;37.67;22.87;;;3.30;99.90;;;;;;5093624;28;20231;-66
2022/11/30 03:42:05;;;;;;;37.70;23.43;;;3.50;99.90;;;;;;5093680;28;20196;-70
2022/11/30 03:44:33;;;;;;;40.37;24.17;;;3.40;99.90;;;;;;5093624;28;20201;-66
2022/11/30 03:47:02;;;;;;;34.57;21.97;;;3.30;99.90;;;;;;5093729;28;20225;-67
2022/11/30 03:49:30;;;;;;;38.47;23.17;;;3.20;99.90;;;;;;5093575;28;20195;-71
2022/11/30 03:52:00;;;;;;;41.33;24.77;;;3.30;99.90;;;;;;5093476;28;20685;-69
2022/11/30 03:54:28;;;;;;;38.83;23.63;;;3.40;99.90;;;;;;5074690;28;20207;-71
2022/11/30 03:56:56;;;;;;;38.03;22.93;;;3.30;99.90;;;;;;5093260;28;20208;-66
2022/11/30 03:59:25;;;;;;;40.40;24.30;;;3.20;99.90;;;;;;5092974;28;20230;-71
2022/11/30 04:01:53;;;;;;;40.50;24.50;;;3.10;99.90;;;;;;5093422;28;20235;-71
2022/11/30 04:04:21;;;;;;;37.70;23.87;;;3.20;99.90;;;;;;5093171;28;20192;-67
2022/11/30 04:06:50;;;;;;;41.10;24.47;;;3.20;99.90;;;;;;5092906;28;20241;-71
2022/11/30 04:09:20;;;;;;;37.90;23.87;;;3.20;99.90;;;;;;5093132;28;20228;-69
2022/11/30 04:11:48;;;;;;;39.37;24.07;;;3.20;99.90;;;;;;5093022;28;20205;-69
2022/11/30 04:14:16;;;;;;;39.30;24.30;;;3.30;99.90;;;;;;5092836;28;20189;-68
2022/11/30 04:16:45;;;;;;;42.27;25.10;;;3.30;99.90;;;;;;5093121;28;20582;-71
2022/11/30 04:19:13;;;;;;;39.73;22.67;;;3.40;99.90;;;;;;5093024;28;20280;-66
2022/11/30 04:21:41;;;;;;;44.87;24.27;;;3.00;99.90;;;;;;5092895;28;20192;-72
2022/11/30 04:24:09;;;;;;;40.73;23.80;;;3.10;99.90;;;;;;5092672;28;20201;-67
2022/11/30 04:26:39;;;;;;;38.73;23.57;;;3.20;99.90;;;;;;5092669;28;20679;-71
2022/11/30 04:29:08;;;;;;;36.50;23.60;;;3.30;99.90;;;;;;5092748;28;20213;-65
2022/11/30 04:31:36;;;;;;;39.93;24.50;;;3.30;99.90;;;;;;5092864;28;20198;-65
2022/11/30 04:34:04;;;;;;;41.27;23.23;;;3.30;99.90;;;;;;5092677;28;20230;-66
2022/11/30 04:36:33;;;;;;;37.70;23.43;;;3.30;99.90;;;;;;5092968;28;20198;-67
2022/11/30 04:39:01;;;;;;;41.80;23.40;;;3.10;99.90;;;;;;5092382;28;20201;-65
2022/11/30 04:41:29;;;;;;;36.33;22.90;;;3.20;99.90;;;;;;5092353;28;20201;-65
2022/11/30 04:43:59;;;;;;;39.00;23.33;;;3.30;99.90;;;;;;5092490;28;20201;-67
2022/11/30 04:46:28;;;;;;;39.10;24.10;;;3.20;99.90;;;;;;5092403;28;20690;-71
2022/11/30 04:48:56;;;;;;;44.00;26.17;;;3.30;99.90;;;;;;5092462;28;20258;-70
2022/11/30 04:51:25;;;;;;;40.47;24.20;;;3.20;99.90;;;;;;5092386;28;20230;-66
2022/11/30 04:53:53;;;;;;;38.43;24.70;;;3.20;99.90;;;;;;5092341;28;20200;-70
2022/11/30 04:56:21;;;;;;;37.10;22.73;;;3.40;99.90;;;;;;5092283;28;20217;-67
2022/11/30 04:58:49;;;;;;;35.67;23.80;;;3.50;99.90;;;;;;5092136;28;20198;-67
2022/11/30 05:01:19;;;;;;;36.77;22.97;;;3.40;99.90;;;;;;5091999;28;20592;-68
2022/11/30 05:03:47;;;;;;;37.37;21.80;;;3.30;99.90;;;;;;5092068;28;20624;-66
2022/11/30 05:06:16;;;;;;;39.10;24.17;;;3.30;99.90;;;;;;5091097;28;20717;-69
2022/11/30 05:08:44;;;;;;;35.17;22.00;;;3.20;99.90;;;;;;5091916;28;20195;-67
2022/11/30 05:11:12;;;;;;;38.83;23.67;;;3.10;99.90;;;;;;5092060;28;20195;-66
2022/11/30 05:13:41;;;;;;;37.03;22.00;;;3.00;99.90;;;;;;5073849;28;20203;-70
2022/11/30 05:16:09;;;;;;;40.37;22.27;;;3.10;99.90;;;;;;5091857;28;20190;-67
2022/11/30 05:18:39;;;;;;;34.90;22.70;;;3.30;99.90;;;;;;5091923;28;20563;-68
2022/11/30 05:21:07;;;;;;;76.37;40.37;;;3.30;99.90;;;;;;5091753;28;20223;-66
2022/11/30 05:23:35;;;;;;;56.53;34.23;;;3.50;99.90;;;;;;5091738;28;20574;-66
2022/11/30 05:26:04;;;;;;;34.67;23.33;;;3.50;99.90;;;;;;5092139;28;20204;-67
2022/11/30 05:28:32;;;;;;;53.13;31.23;;;3.50;99.90;;;;;;5092114;28;20242;-67
2022/11/30 05:31:03;;;;;;;48.93;30.70;;;3.50;99.90;;;;;;5091769;28;20201;-66
2022/11/30 05:33:32;;;;;;;34.43;22.67;;;3.50;99.90;;;;;;5091842;28;20206;-72
2022/11/30 05:36:02;;;;;;;45.33;27.47;;;3.30;99.90;;;;;;5091845;28;20196;-66
2022/11/30 05:38:37;;;;;;;41.00;24.43;;;3.20;99.90;;;;;;5092034;28;20203;-65
2022/11/30 05:41:05;;;;;;;36.63;21.57;;;2.90;99.90;;;;;;5091846;28;20239;-67
2022/11/30 05:43:34;;;;;;;37.97;22.27;;;2.90;99.90;;;;;;5091763;28;20197;-67
2022/11/30 05:46:03;;;;;;;73.23;44.53;;;3.10;99.90;;;;;;5091421;28;20204;-67
2022/11/30 05:48:32;;;;;;;40.73;25.80;;;3.20;99.90;;;;;;5091464;28;20204;-67
2022/11/30 05:51:07;;;;;;;43.73;24.33;;;3.20;99.90;;;;;;5091509;28;20206;-66
2022/11/30 05:53:35;;;;;;;48.37;30.33;;;3.00;99.90;;;;;;5091703;28;20207;-70
2022/11/30 05:56:05;;;;;;;42.93;24.93;;;3.10;99.90;;;;;;5073634;28;20627;-72
2022/11/30 05:58:34;;;;;;;40.63;22.97;;;3.20;99.90;;;;;;5091552;28;20194;-73
2022/11/30 06:01:02;;;;;;;37.50;22.27;;;3.10;99.90;;;;;;5091274;28;20216;-66
2022/11/30 06:03:33;;;;;;;38.43;22.43;;;3.10;99.90;;;;;;5091386;28;21065;-72
2022/11/30 06:06:02;;;;;;;38.60;22.27;;;3.20;99.90;;;;;;5085988;28;20712;-67
2022/11/30 06:08:31;;;;;;;37.80;22.80;;;3.10;99.90;;;;;;5091777;28;20203;-66
2022/11/30 06:11:00;;;;;;;38.03;21.87;;;2.90;99.90;;;;;;5091429;28;20957;-66
2022/11/30 06:13:30;;;;;;;40.37;22.67;;;2.90;99.90;;;;;;5091279;28;20196;-66
2022/11/30 06:15:59;;;;;;;40.23;23.87;;;2.80;99.90;;;;;;5090904;28;20208;-72
2022/11/30 06:18:27;;;;;;;37.33;23.53;;;2.80;99.90;;;;;;5092865;28;20206;-71
2022/11/30 06:21:00;;;;;;;40.80;24.80;;;2.90;99.90;;;;;;5095045;28;20235;-71
2022/11/30 06:23:28;;;;;;;36.10;21.87;;;3.00;99.90;;;;;;5095080;28;20197;-67
2022/11/30 06:25:58;;;;;;;41.13;23.80;;;2.90;99.90;;;;;;5095005;28;20283;-69
2022/11/30 06:28:26;;;;;;;39.67;25.43;;;2.70;99.90;;;;;;5094892;28;20223;-72
2022/11/30 06:30:58;;;;;;;38.20;23.80;;;2.70;99.90;;;;;;5094801;28;20558;-65
2022/11/30 06:33:27;;;;;;;35.63;22.57;;;2.90;99.90;;;;;;5094989;28;20242;-73
2022/11/30 06:35:55;;;;;;;37.10;23.07;;;2.90;99.90;;;;;;5088002;28;20198;-71
2022/11/30 06:38:24;;;;;;;39.97;23.47;;;2.90;99.90;;;;;;5093896;28;20297;-68
2022/11/30 06:40:53;;;;;;;38.37;22.67;;;2.90;99.90;;;;;;5094512;28;20699;-70
2022/11/30 06:43:23;;;;;;;39.57;23.40;;;2.80;99.90;;;;;;5094589;28;20201;-71
2022/11/30 06:45:51;;;;;;;44.40;22.63;;;2.90;99.90;;;;;;5094604;28;20209;-70
2022/11/30 06:48:21;;;;;;;36.50;23.60;;;2.90;99.90;;;;;;5094751;28;20209;-70
2022/11/30 06:50:50;;;;;;;40.33;22.57;;;3.10;99.90;;;;;;5094631;28;20193;-68
2022/11/30 06:53:18;;;;;;;37.97;23.30;;;3.10;99.90;;;;;;5094469;28;20209;-66
2022/11/30 06:55:46;;;;;;;35.87;23.53;;;3.10;99.90;;;;;;5094439;28;20205;-67
2022/11/30 06:58:14;;;;;;;41.87;24.80;;;2.80;99.90;;;;;;5094649;28;20204;-68
2022/11/30 07:00:44;;;;;;;43.47;24.37;;;3.00;99.90;;;;;;5094258;28;20224;-69
2022/11/30 07:03:13;;;;;;;39.93;25.97;;;3.20;99.90;;;;;;5094440;28;20205;-70
2022/11/30 07:05:43;;;;;;;43.93;26.93;;;3.40;99.90;;;;;;5089038;28;20221;-73
2022/11/30 07:08:12;;;;;;;40.27;23.10;;;3.40;99.90;;;;;;5073704;28;20202;-75
2022/11/30 07:10:41;;;;;;;43.87;25.63;;;3.20;99.90;;;;;;5087673;28;20652;-66
2022/11/30 07:13:11;;;;;;;37.93;24.03;;;3.40;99.90;;;;;;5074524;28;20255;-66
2022/11/30 07:15:40;;;;;;;43.23;24.53;;;3.60;99.90;;;;;;5074182;28;20692;-69
2022/11/30 07:18:10;;;;;;;41.87;24.17;;;3.70;99.90;;;;;;5074408;28;20573;-67
2022/11/30 07:20:39;;;;;;;48.63;25.07;;;3.80;99.90;;;;;;5074273;28;20209;-66
2022/11/30 07:26:06;;;;;;;41.00;25.50;;;3.90;99.90;;;;;;5093831;28;20193;-72
2022/11/30 07:28:35;;;;;;;42.83;26.83;;;3.90;99.90;;;;;;5093548;28;20210;-67
2022/11/30 07:31:18;;;;;;;47.57;26.17;;;3.90;99.90;;;;;;5093689;28;20199;-70
2022/11/30 07:33:48;;;;;;;43.73;24.87;;;3.90;99.90;;;;;;5094074;28;20206;-66
2022/11/30 07:36:17;;;;;;;40.33;24.10;;;4.00;99.90;;;;;;5094374;28;20202;-69
2022/11/30 07:38:46;;;;;;;86.43;45.57;;;4.10;99.90;;;;;;5094022;28;20219;-67
2022/11/30 07:41:14;;;;;;;95.47;49.67;;;4.10;99.90;;;;;;5093555;28;20570;-70
2022/11/30 07:43:43;;;;;;;65.30;36.63;;;4.30;99.90;;;;;;5093962;28;20201;-69
2022/11/30 07:46:13;;;;;;;54.30;31.93;;;4.40;99.90;;;;;;5093638;28;20190;-65
2022/11/30 07:48:42;;;;;;;51.17;30.20;;;4.40;99.90;;;;;;5094096;28;20201;-66
2022/11/30 07:51:14;;;;;;;44.03;25.83;;;4.50;99.90;;;;;;5093845;28;20208;-65
2022/11/30 07:53:42;;;;;;;54.53;29.87;;;4.40;99.90;;;;;;5080395;28;20734;-69
2022/11/30 07:56:13;;;;;;;53.43;30.83;;;4.40;99.90;;;;;;5073538;28;20209;-65
2022/11/30 07:58:42;;;;;;;52.67;29.57;;;4.40;99.90;;;;;;5073426;28;20193;-67
2022/11/30 08:01:12;;;;;;;50.53;29.40;;;4.40;99.90;;;;;;5073365;28;20589;-70
2022/11/30 08:03:41;;;;;;;43.67;26.57;;;4.50;99.90;;;;;;5073320;28;20699;-69
2022/11/30 08:06:13;;;;;;;116.93;48.37;;;4.50;99.90;;;;;;5079898;28;20771;-68
2022/11/30 08:08:43;;;;;;;81.30;41.13;;;4.50;99.90;;;;;;5092993;28;20223;-66
2022/11/30 08:11:13;;;;;;;50.07;28.90;;;4.60;99.90;;;;;;5093569;28;20222;-68
2022/11/30 08:13:42;;;;;;;182.93;77.53;;;4.50;99.90;;;;;;5093275;28;20198;-67
2022/11/30 08:16:12;;;;;;;91.43;46.70;;;4.60;99.90;;;;;;5093519;28;20246;-65
2022/11/30 08:18:41;;;;;;;125.37;66.43;;;4.60;99.90;;;;;;5093162;28;20195;-66
2022/11/30 08:21:14;;;;;;;123.30;58.50;;;4.60;99.90;;;;;;5093170;28;20238;-70
2022/11/30 08:23:45;;;;;;;70.53;39.93;;;4.70;99.90;;;;;;5092321;28;20202;-67
2022/11/30 08:26:15;;;;;;;50.40;32.13;;;4.70;99.90;;;;;;5092944;28;20207;-68
2022/11/30 08:28:45;;;;;;;47.57;26.50;;;4.70;99.90;;;;;;5093313;28;20209;-70
2022/11/30 08:31:16;;;;;;;60.30;38.07;;;4.60;98.00;;;;;;5074851;28;20201;-68
2022/11/30 08:33:44;;;;;;;45.77;28.03;;;4.40;99.00;;;;;;5093188;28;20213;-67
2022/11/30 08:36:16;;;;;;;45.07;25.83;;;4.40;99.70;;;;;;5092723;28;20297;-68
2022/11/30 08:38:46;;;;;;;49.50;26.63;;;4.30;99.30;;;;;;5092314;28;20575;-69
2022/11/30 08:41:15;;;;;;;47.17;26.40;;;4.00;99.80;;;;;;5093007;28;20219;-67
2022/11/30 08:43:44;;;;;;;45.27;25.53;;;4.10;99.90;;;;;;5092837;28;20210;-68
2022/11/30 08:46:15;;;;;;;48.87;26.77;;;4.00;99.90;;;;;;5092611;28;20247;-67
2022/11/30 08:49:04;;;;;;;76.57;40.87;;;4.00;99.90;;;;;;5092841;28;20193;-67
2022/11/30 08:51:53;;;;;;;44.13;25.80;;;4.10;99.90;;;;;;5092206;28;20746;-66
2022/11/30 08:54:43;;;;;;;45.60;25.60;;;4.10;99.90;;;;;;5092046;28;20202;-67
2022/11/30 08:57:12;;;;;;;53.40;28.77;;;4.00;99.90;;;;;;5092667;28;20202;-69
2022/11/30 08:59:41;;;;;;;45.27;27.07;;;4.00;99.90;;;;;;5092292;28;20556;-69
2022/11/30 09:02:09;;;;;;;47.87;27.43;;;3.90;99.90;;;;;;5092534;28;20240;-70
2022/11/30 09:04:38;;;;;;;56.40;31.80;;;3.90;99.90;;;;;;5092318;28;20225;-67
2022/11/30 09:07:08;;;;;;;80.40;38.33;;;4.00;99.90;;;;;;5091798;28;20226;-68
2022/11/30 09:09:37;;;;;;;61.00;33.40;;;4.10;99.90;;;;;;5092564;28;20205;-68
2022/11/30 09:12:07;;;;;;;48.53;26.00;;;4.10;99.90;;;;;;5092417;28;20666;-67
2022/11/30 09:14:36;;;;;;;46.33;25.40;;;4.00;99.90;;;;;;5083724;28;20191;-68
2022/11/30 09:17:04;;;;;;;51.83;28.00;;;3.90;99.90;;;;;;5070948;28;20758;-67
2022/11/30 09:19:32;;;;;;;46.30;26.97;;;3.90;99.90;;;;;;5072095;28;20198;-67
2022/11/30 09:22:01;;;;;;;53.43;29.40;;;3.80;99.90;;;;;;5070994;28;20223;-67
2022/11/30 09:24:30;;;;;;;63.77;33.37;;;3.90;99.90;;;;;;5070141;28;20692;-67
2022/11/30 09:26:59;;;;;;;57.90;34.33;;;4.00;99.90;;;;;;5072156;28;20191;-68
2022/11/30 09:29:27;;;;;;;47.20;27.33;;;4.10;99.90;;;;;;5072375;28;20237;-70
2022/11/30 09:31:55;;;;;;;50.97;29.83;;;4.00;99.90;;;;;;5072004;28;20195;-67
2022/11/30 09:34:23;;;;;;;44.93;25.97;;;3.90;99.90;;;;;;5072067;28;20228;-68
2022/11/30 09:36:52;;;;;;;47.33;27.27;;;4.00;99.90;;;;;;5053850;28;20233;-66
2022/11/30 09:39:20;;;;;;;45.23;26.50;;;4.00;99.90;;;;;;5071924;28;20195;-67
2022/11/30 09:42:25;;;;;;;46.67;26.67;;;4.00;99.90;;;;;;5071980;28;20214;-68
2022/11/30 09:45:01;;;;;;;42.20;24.23;;;4.00;99.90;;;;;;5071804;28;20199;-66
2022/11/30 09:47:52;;;;;;;42.50;26.30;;;4.00;99.90;;;;;;5072059;28;20210;-68
2022/11/30 09:50:22;;;;;;;44.67;25.50;;;4.00;99.90;;;;;;5072006;28;20206;-67
2022/11/30 09:52:54;;;;;;;41.13;25.13;;;4.00;99.90;;;;;;5073169;28;20204;-67
2022/11/30 09:55:28;;;;;;;45.23;24.43;;;3.90;99.90;;;;;;5076081;28;20539;-68
2022/11/30 09:58:03;;;;;;;46.93;26.00;;;3.80;99.90;;;;;;5076403;28;20209;-67
2022/11/30 10:00:33;;;;;;;43.37;24.70;;;3.90;99.90;;;;;;5075794;28;20189;-67
2022/11/30 10:03:04;;;;;;;52.07;32.33;;;4.00;99.90;;;;;;5075748;28;20335;-66
2022/11/30 10:05:46;;;;;;;46.97;25.57;;;4.10;99.90;;;;;;5075975;28;20225;-66
2022/11/30 10:08:32;;;;;;;44.20;26.40;;;4.10;99.90;;;;;;5075987;28;20549;-66
2022/11/30 10:11:18;;;;;;;49.67;26.97;;;4.10;99.90;;;;;;5075860;28;20252;-66
2022/11/30 10:14:01;;;;;;;60.47;31.57;;;4.00;99.90;;;;;;5075934;28;20234;-67
2022/11/30 10:16:40;;;;;;;56.63;30.00;;;4.00;99.90;;;;;;5075630;28;20199;-69
2022/11/30 10:19:20;;;;;;;50.00;28.03;;;4.10;99.90;;;;;;5075639;28;20218;-67
2022/11/30 10:22:01;;;;;;;119.40;66.67;;;4.00;99.90;;;;;;5075529;28;20275;-67
2022/11/30 10:24:38;;;;;;;49.10;26.43;;;4.10;99.90;;;;;;5075073;28;20200;-67
2022/11/30 10:27:15;;;;;;;52.57;29.67;;;4.00;99.90;;;;;;5075922;28;20203;-67
2022/11/30 10:29:45;;;;;;;54.67;28.37;;;4.00;99.90;;;;;;5075681;28;20298;-67
2022/11/30 10:32:19;;;;;;;52.30;30.23;;;3.90;99.90;;;;;;5075052;28;20260;-67
2022/11/30 10:34:51;;;;;;;54.83;29.47;;;4.00;99.90;;;;;;5075257;28;20249;-67
2022/11/30 10:37:22;;;;;;;57.67;32.13;;;4.00;99.90;;;;;;5075484;28;20230;-67
2022/11/30 10:39:59;;;;;;;50.20;28.07;;;4.10;99.90;;;;;;5075233;28;20294;-67
2022/11/30 10:42:32;;;;;;;81.03;40.53;;;4.20;99.90;;;;;;5075161;28;20221;-68
2022/11/30 10:45:05;;;;;;;83.97;39.83;;;4.30;99.90;;;;;;5075100;28;20294;-67
2022/11/30 10:47:36;;;;;;;44.30;26.83;;;4.30;99.90;;;;;;5075016;28;20209;-67
2022/11/30 10:50:06;;;;;;;56.33;31.63;;;4.20;99.90;;;;;;5075181;28;20264;-67
2022/11/30 10:52:41;;;;;;;46.30;26.87;;;4.20;99.90;;;;;;5074765;28;20257;-68
2022/11/30 10:55:17;;;;;;;47.23;27.57;;;4.20;99.90;;;;;;5074876;28;20225;-68
2022/11/30 10:57:48;;;;;;;52.23;27.93;;;4.30;99.90;;;;;;5074933;28;20219;-66
2022/11/30 11:00:18;;;;;;;63.90;30.73;;;4.40;99.90;;;;;;5074636;28;20231;-67
2022/11/30 11:02:49;;;;;;;42.53;27.67;;;4.30;99.90;;;;;;5074554;28;20214;-65
2022/11/30 11:05:22;;;;;;;50.70;27.13;;;4.20;99.60;;;;;;5073492;28;20209;-66
2022/11/30 11:07:55;;;;;;;57.33;32.37;;;4.10;99.90;;;;;;5074570;28;20253;-67
2022/11/30 11:10:34;;;;;;;48.37;28.43;;;4.20;99.90;;;;;;5074934;28;20622;-66
2022/11/30 11:13:03;;;;;;;48.03;26.87;;;4.10;99.90;;;;;;5074895;28;20202;-66
2022/11/30 11:15:34;;;;;;;45.90;26.63;;;4.10;99.90;;;;;;5074415;28;20200;-66
2022/11/30 11:18:21;;;;;;;45.13;24.97;;;4.00;99.90;;;;;;5074323;28;20202;-67
2022/11/30 11:21:01;;;;;;;53.13;29.23;;;3.90;99.90;;;;;;5074627;28;20207;-66
2022/11/30 11:23:36;;;;;;;156.30;79.60;;;4.10;99.90;;;;;;5074076;28;20230;-65
2022/11/30 11:26:05;;;;;;;50.87;31.53;;;4.20;99.90;;;;;;5074478;28;20191;-66
2022/11/30 11:28:35;;;;;;;46.93;28.40;;;4.30;99.90;;;;;;5074207;28;20203;-67
2022/11/30 11:31:18;;;;;;;56.40;33.33;;;4.30;99.90;;;;;;5074284;28;20230;-68
2022/11/30 11:33:52;;;;;;;52.03;29.50;;;4.40;99.90;;;;;;5074333;28;20270;-67
2022/11/30 11:36:27;;;;;;;51.60;28.07;;;4.40;99.90;;;;;;5074408;28;20210;-66
2022/11/30 11:38:56;;;;;;;49.33;26.90;;;4.40;99.90;;;;;;5074199;28;20258;-67
2022/11/30 11:41:28;;;;;;;49.57;28.07;;;4.50;99.50;;;;;;5073971;28;20278;-67
2022/11/30 11:44:01;;;;;;;46.43;27.73;;;4.40;99.50;;;;;;5073863;28;20226;-67
2022/11/30 11:46:33;;;;;;;52.63;28.47;;;4.30;99.50;;;;;;5073847;28;20200;-67
2022/11/30 11:49:04;;;;;;;53.77;30.27;;;4.20;99.50;;;;;;5073966;28;20554;-67
2022/11/30 11:51:34;;;;;;;58.47;33.80;;;4.30;99.90;;;;;;5074132;28;20214;-68
2022/11/30 11:54:11;;;;;;;64.43;33.20;;;4.30;99.90;;;;;;5074004;28;20206;-66
2022/11/30 11:56:40;;;;;;;52.30;27.60;;;4.40;99.90;;;;;;5073891;28;20670;-68
2022/11/30 11:59:15;;;;;;;49.80;29.20;;;4.30;99.90;;;;;;5073957;28;20200;-68
2022/11/30 12:01:51;;;;;;;54.80;28.33;;;4.30;99.90;;;;;;5073608;28;20189;-68
2022/11/30 12:04:42;;;;;;;140.60;52.83;;;4.40;99.80;;;;;;5073494;28;20230;-73
2022/11/30 12:07:22;;;;;;;45.30;26.27;;;4.40;99.70;;;;;;5073247;28;20746;-72
2022/11/30 12:09:59;;;;;;;48.33;26.17;;;4.30;98.90;;;;;;5073697;28;20585;-67
2022/11/30 12:12:28;;;;;;;61.70;33.10;;;4.10;99.90;;;;;;5073502;28;20206;-68
2022/11/30 12:14:57;;;;;;;85.23;42.70;;;4.20;99.90;;;;;;5073027;28;20273;-72
2022/11/30 12:17:46;;;;;;;69.43;38.03;;;4.20;99.90;;;;;;5073275;28;20209;-71
2022/11/30 12:20:23;;;;;;;49.17;28.93;;;4.20;99.90;;;;;;5073605;28;20566;-70
2022/11/30 12:23:08;;;;;;;88.67;44.43;;;4.20;99.90;;;;;;5073302;28;20196;-67
2022/11/30 12:25:41;;;;;;;74.50;34.93;;;4.10;99.90;;;;;;5073253;28;20206;-68
2022/11/30 12:28:21;;;;;;;76.20;32.03;;;4.20;99.90;;;;;;5073734;28;20198;-68
2022/11/30 12:31:00;;;;;;;47.50;26.17;;;4.10;99.90;;;;;;5055465;28;20206;-67
2022/11/30 12:33:45;;;;;;;68.50;38.17;;;4.00;99.90;;;;;;5070924;28;20199;-70
2022/11/30 12:36:21;;;;;;;51.67;29.47;;;4.10;99.90;;;;;;5073369;28;20192;-68
2022/11/30 12:38:57;;;;;;;98.33;48.33;;;4.10;99.90;;;;;;5073295;28;20744;-69
2022/11/30 12:41:38;;;;;;;45.60;27.87;;;4.20;99.90;;;;;;5073051;28;20203;-68
2022/11/30 12:44:27;;;;;;;49.83;28.90;;;4.20;99.40;;;;;;5072930;28;20734;-71
2022/11/30 12:47:03;;;;;;;58.57;32.50;;;4.10;99.90;;;;;;5072914;28;20206;-69
2022/11/30 12:49:48;;;;;;;52.57;29.33;;;4.10;99.90;;;;;;5072916;28;20674;-68
2022/11/30 12:52:30;;;;;;;84.10;40.87;;;4.10;99.90;;;;;;5072938;28;20202;-69
2022/11/30 12:55:10;;;;;;;55.20;31.20;;;4.10;99.90;;;;;;5072839;28;20199;-69
2022/11/30 12:57:45;;;;;;;48.50;28.73;;;4.20;99.90;;;;;;5072600;28;20186;-67
2022/11/30 13:00:18;;;;;;;59.87;31.90;;;4.20;99.90;;;;;;5073038;28;20531;-69